Time;durP1;ratioP1;P1;durP2;ratioP2;P2;SDS_P1;SDS_P2;PMS_P1;PMS_P2;Temp;Humidity;BMP_temperature;BMP_pressure;BME280_temperature;BME280_humidity;BME280_pressure;Samples;Min_cycle;Max_cycle;Signal;HPM_P1;HPM_P2
2022/10/27 00:01:39;;;;;;;4.45;2.28;;;;;;;;;;5076594;28;20645;-82
2022/10/27 00:04:07;;;;;;;3.60;2.05;;;;;;;;;;5076307;28;20260;-83
2022/10/27 00:06:36;;;;;;;4.22;2.13;;;;;;;;;;5076518;28;20287;-84
2022/10/27 00:09:04;;;;;;;4.35;2.58;;;;;;;;;;5076695;28;20197;-81
2022/10/27 00:11:33;;;;;;;2.50;1.90;;;;;;;;;;5076891;28;20197;-83
2022/10/27 00:14:00;;;;;;;1.50;1.40;;;;;;;;;;5075946;28;20316;-83
2022/10/27 00:16:28;;;;;;;1.60;1.50;;;;;;;;;;5076845;28;20288;-84
2022/10/27 00:18:55;;;;;;;2.63;1.33;;;;;;;;;;5076464;28;20292;-83
2022/10/27 00:21:23;;;;;;;1.20;1.05;;;;;;;;;;5076051;28;20772;-83
2022/10/27 00:23:51;;;;;;;2.40;1.20;;;;;;;;;;5076373;28;20225;-83
2022/10/27 00:26:21;;;;;;;2.35;0.98;;;;;;;;;;5075850;28;20295;-83
2022/10/27 00:28:50;;;;;;;1.98;1.70;;;;;;;;;;5075034;28;20652;-83
2022/10/27 00:31:19;;;;;;;3.50;1.20;;;;;;;;;;5075930;28;20300;-83
2022/10/27 00:33:49;;;;;;;8.85;1.33;;;;;;;;;;5076077;28;20707;-84
2022/10/27 00:36:20;;;;;;;2.35;1.30;;;;;;;;;;5076204;28;20211;-85
2022/10/27 00:38:48;;;;;;;1.88;1.13;;;;;;;;;;5075658;28;20273;-85
2022/10/27 00:41:28;;;;;;;2.78;1.02;;;;;;;;;;5075248;28;20227;-85
2022/10/27 00:43:58;;;;;;;1.60;1.20;;;;;;;;;;5075749;28;20744;-85
2022/10/27 00:46:34;;;;;;;2.42;1.90;;;;;;;;;;5075443;28;20578;-85
2022/10/27 00:49:06;;;;;;;1.10;1.10;;;;;;;;;;5075713;28;20207;-85
2022/10/27 00:51:33;;;;;;;1.23;1.08;;;;;;;;;;5075522;28;20187;-85
2022/10/27 00:54:01;;;;;;;1.63;1.13;;;;;;;;;;5074783;28;20288;-84
2022/10/27 00:56:29;;;;;;;3.42;1.45;;;;;;;;;;5075627;28;20207;-84
2022/10/27 00:58:58;;;;;;;1.13;1.02;;;;;;;;;;5075042;28;20203;-85
2022/10/27 01:01:26;;;;;;;2.03;1.40;;;;;;;;;;5075279;28;20315;-83
2022/10/27 01:03:53;;;;;;;2.22;1.23;;;;;;;;;;5075181;28;20228;-86
2022/10/27 01:06:21;;;;;;;1.20;0.90;;;;;;;;;;5075467;28;20777;-85
2022/10/27 01:08:48;;;;;;;0.93;0.93;;;;;;;;;;5075448;28;20201;-84
2022/10/27 01:11:16;;;;;;;1.17;1.10;;;;;;;;;;5075456;28;20201;-84
2022/10/27 01:13:43;;;;;;;1.13;1.10;;;;;;;;;;5075201;28;20315;-84
2022/10/27 01:16:23;;;;;;;1.65;1.55;;;;;;;;;;5074872;28;20605;-84
2022/10/27 01:19:02;;;;;;;1.30;1.20;;;;;;;;;;5075429;28;20280;-85
2022/10/27 01:21:56;;;;;;;1.30;1.20;;;;;;;;;;5075322;28;20197;-84
2022/10/27 01:24:46;;;;;;;3.03;1.40;;;;;;;;;;5071445;28;20556;-84
2022/10/27 01:27:42;;;;;;;1.33;1.23;;;;;;;;;;5074986;28;20638;-85
2022/10/27 01:30:10;;;;;;;1.35;1.20;;;;;;;;;;5047200;28;20201;-84
2022/10/27 01:32:48;;;;;;;2.20;1.48;;;;;;;;;;5075413;28;20711;-84
2022/10/27 01:35:25;;;;;;;1.20;1.10;;;;;;;;;;5074630;28;20192;-83
2022/10/27 01:38:00;;;;;;;2.60;1.58;;;;;;;;;;5074657;28;20185;-84
2022/10/27 01:40:30;;;;;;;2.00;1.80;;;;;;;;;;5074295;28;20181;-84
2022/10/27 01:43:02;;;;;;;5.63;1.38;;;;;;;;;;5074652;28;20229;-84
2022/10/27 01:45:32;;;;;;;0.95;0.80;;;;;;;;;;5074966;28;20680;-83
2022/10/27 01:48:01;;;;;;;0.98;0.90;;;;;;;;;;5074819;28;20678;-83
2022/10/27 01:50:32;;;;;;;0.90;0.90;;;;;;;;;;5074331;28;20297;-85
2022/10/27 01:53:00;;;;;;;1.00;1.00;;;;;;;;;;5074413;28;20277;-84
2022/10/27 01:55:35;;;;;;;0.95;0.90;;;;;;;;;;5074120;28;20313;-84
2022/10/27 01:58:22;;;;;;;1.08;1.00;;;;;;;;;;5074387;28;20188;-84
2022/10/27 02:01:00;;;;;;;0.95;0.95;;;;;;;;;;5073951;28;20192;-83
2022/10/27 02:03:35;;;;;;;1.25;1.17;;;;;;;;;;5073820;28;20323;-83
2022/10/27 02:06:08;;;;;;;3.53;2.00;;;;;;;;;;5073594;28;20185;-83
2022/10/27 02:08:41;;;;;;;1.55;1.45;;;;;;;;;;5073970;28;20186;-83
2022/10/27 02:11:10;;;;;;;4.10;2.22;;;;;;;;;;5073710;28;20213;-83
2022/10/27 02:13:41;;;;;;;4.35;2.13;;;;;;;;;;5100223;22;20241;-85
2022/10/27 02:16:11;;;;;;;2.22;1.70;;;;;;;;;;5114157;28;20207;-85
2022/10/27 02:18:44;;;;;;;1.95;1.58;;;;;;;;;;5113732;28;20208;-85
2022/10/27 02:21:12;;;;;;;1.73;1.63;;;;;;;;;;5114080;28;20206;-85
2022/10/27 02:23:40;;;;;;;1.48;1.38;;;;;;;;;;5097617;28;20315;-85
2022/10/27 02:26:19;;;;;;;2.90;2.67;;;;;;;;;;5082063;28;20209;-84
2022/10/27 02:28:51;;;;;;;1.00;1.00;;;;;;;;;;5073597;28;20207;-85
2022/10/27 02:31:21;;;;;;;4.43;1.02;;;;;;;;;;5074473;28;20292;-84
2022/10/27 02:33:51;;;;;;;2.50;1.70;;;;;;;;;;5073961;28;20227;-84
2022/10/27 02:36:19;;;;;;;1.50;1.30;;;;;;;;;;5074091;28;20575;-84
2022/10/27 02:38:46;;;;;;;1.25;1.15;;;;;;;;;;5073374;28;20669;-83
2022/10/27 02:41:14;;;;;;;0.98;0.98;;;;;;;;;;5073884;28;20680;-83
2022/10/27 02:43:41;;;;;;;1.15;1.02;;;;;;;;;;5073828;28;20307;-84
2022/10/27 02:46:09;;;;;;;1.63;0.93;;;;;;;;;;5073692;28;20292;-84
2022/10/27 02:48:36;;;;;;;1.63;1.30;;;;;;;;;;5074408;28;20283;-84
2022/10/27 02:51:05;;;;;;;1.23;1.20;;;;;;;;;;5073525;28;20713;-84
2022/10/27 02:53:33;;;;;;;1.40;1.30;;;;;;;;;;5074148;28;20311;-84
2022/10/27 02:56:00;;;;;;;1.90;1.80;;;;;;;;;;5073178;28;20292;-84
2022/10/27 02:58:28;;;;;;;1.95;1.75;;;;;;;;;;5073049;28;20228;-83
2022/10/27 03:00:56;;;;;;;1.58;1.48;;;;;;;;;;5072789;28;20463;-83
2022/10/27 03:03:23;;;;;;;1.40;1.30;;;;;;;;;;5072950;28;20231;-83
2022/10/27 03:05:51;;;;;;;1.38;1.25;;;;;;;;;;5072933;28;20204;-84
2022/10/27 03:08:20;;;;;;;1.33;1.30;;;;;;;;;;5072696;28;20219;-83
2022/10/27 03:10:47;;;;;;;2.47;1.40;;;;;;;;;;5074206;28;20729;-83
2022/10/27 03:13:15;;;;;;;1.60;1.50;;;;;;;;;;5073576;28;20229;-85
2022/10/27 03:15:43;;;;;;;1.73;1.63;;;;;;;;;;5072935;28;20196;-84
2022/10/27 03:18:11;;;;;;;1.73;1.63;;;;;;;;;;5073060;28;20207;-85
2022/10/27 03:20:38;;;;;;;2.00;1.90;;;;;;;;;;5072419;28;20284;-85
2022/10/27 03:23:06;;;;;;;1.83;1.73;;;;;;;;;;5073529;28;20753;-84
2022/10/27 03:25:36;;;;;;;1.70;1.60;;;;;;;;;;5093082;28;20713;-84
2022/10/27 03:28:03;;;;;;;1.38;1.25;;;;;;;;;;5092364;28;20196;-85
2022/10/27 03:30:31;;;;;;;1.40;1.30;;;;;;;;;;5092864;28;20295;-84
2022/10/27 03:33:00;;;;;;;1.45;1.20;;;;;;;;;;5092944;28;20311;-84
2022/10/27 03:35:27;;;;;;;1.35;1.25;;;;;;;;;;5093024;28;20286;-85
2022/10/27 03:37:58;;;;;;;1.60;1.50;;;;;;;;;;5093014;28;20296;-85
2022/10/27 03:40:26;;;;;;;1.42;1.33;;;;;;;;;;5094404;28;20232;-86
2022/10/27 03:42:57;;;;;;;1.00;1.00;;;;;;;;;;5093621;28;20236;-85
2022/10/27 03:45:25;;;;;;;3.00;1.30;;;;;;;;;;5093866;28;20645;-85
2022/10/27 03:48:01;;;;;;;4.30;2.00;;;;;;;;;;5094106;28;20200;-84
2022/10/27 03:50:29;;;;;;;2.08;1.38;;;;;;;;;;5094385;28;20204;-84
2022/10/27 03:52:56;;;;;;;1.75;1.25;;;;;;;;;;5093677;28;20240;-84
2022/10/27 03:55:24;;;;;;;1.50;1.40;;;;;;;;;;5092806;28;20197;-83
2022/10/27 03:57:51;;;;;;;2.63;1.48;;;;;;;;;;5092617;28;20200;-83
2022/10/27 04:00:21;;;;;;;1.70;1.60;;;;;;;;;;5093248;28;20204;-84
2022/10/27 04:02:48;;;;;;;1.90;1.80;;;;;;;;;;5094841;28;20216;-84
2022/10/27 04:05:16;;;;;;;4.70;2.42;;;;;;;;;;5096818;28;20637;-84
2022/10/27 04:07:43;;;;;;;2.15;1.90;;;;;;;;;;5098162;28;20639;-83
2022/10/27 04:10:12;;;;;;;1.92;1.80;;;;;;;;;;5096488;28;20283;-83
2022/10/27 04:12:39;;;;;;;1.77;1.67;;;;;;;;;;5096079;28;20252;-83
2022/10/27 04:15:07;;;;;;;2.75;1.83;;;;;;;;;;5095455;28;20575;-84
2022/10/27 04:17:36;;;;;;;1.80;1.70;;;;;;;;;;5096915;28;20295;-83
2022/10/27 04:20:04;;;;;;;1.50;1.40;;;;;;;;;;5096500;28;20235;-83
2022/10/27 04:22:32;;;;;;;1.58;1.48;;;;;;;;;;5095957;28;20292;-84
2022/10/27 04:25:00;;;;;;;1.52;1.50;;;;;;;;;;5096793;28;20609;-84
2022/10/27 04:27:27;;;;;;;1.23;1.23;;;;;;;;;;5095985;28;20768;-85
2022/10/27 04:29:55;;;;;;;1.92;1.83;;;;;;;;;;5095645;28;20227;-85
2022/10/27 04:32:22;;;;;;;1.27;1.20;;;;;;;;;;5096028;28;20247;-85
2022/10/27 04:34:51;;;;;;;1.30;1.20;;;;;;;;;;5095599;28;20568;-85
2022/10/27 04:37:18;;;;;;;1.45;1.42;;;;;;;;;;5096230;28;20672;-85
2022/10/27 04:39:46;;;;;;;1.38;1.25;;;;;;;;;;5097123;28;20687;-85
2022/10/27 04:42:13;;;;;;;1.08;1.00;;;;;;;;;;5096869;28;20517;-85
2022/10/27 04:44:41;;;;;;;1.10;1.10;;;;;;;;;;5096417;28;20306;-83
2022/10/27 04:47:08;;;;;;;1.00;1.00;;;;;;;;;;5096234;28;20242;-85
2022/10/27 04:49:36;;;;;;;1.30;1.30;;;;;;;;;;5095617;28;20240;-83
2022/10/27 04:52:05;;;;;;;1.20;1.20;;;;;;;;;;5096023;28;20236;-84
2022/10/27 04:54:32;;;;;;;1.60;1.50;;;;;;;;;;5096015;28;20311;-82
2022/10/27 04:57:00;;;;;;;1.42;1.33;;;;;;;;;;5096602;28;20245;-83
2022/10/27 04:59:27;;;;;;;1.88;1.77;;;;;;;;;;5096322;28;20239;-81
2022/10/27 05:01:55;;;;;;;1.98;1.58;;;;;;;;;;5096430;28;20272;-82
2022/10/27 05:04:22;;;;;;;1.20;1.20;;;;;;;;;;5096636;28;20315;-81
2022/10/27 05:06:50;;;;;;;1.70;1.60;;;;;;;;;;5096331;28;20231;-81
2022/10/27 05:09:18;;;;;;;1.63;1.52;;;;;;;;;;5096494;28;20668;-81
2022/10/27 05:11:46;;;;;;;1.70;1.60;;;;;;;;;;5096221;28;20616;-81
2022/10/27 05:14:13;;;;;;;1.80;1.20;;;;;;;;;;5095291;28;20307;-82
2022/10/27 05:16:41;;;;;;;1.95;1.85;;;;;;;;;;5096863;28;20207;-82
2022/10/27 05:19:08;;;;;;;1.45;1.35;;;;;;;;;;5096939;28;20520;-82
2022/10/27 05:21:36;;;;;;;2.13;1.92;;;;;;;;;;5095667;28;20231;-81
2022/10/27 05:24:04;;;;;;;2.17;2.08;;;;;;;;;;5095907;28;20315;-82
2022/10/27 05:26:33;;;;;;;1.92;1.83;;;;;;;;;;5094927;28;20203;-82
2022/10/27 05:29:00;;;;;;;1.88;1.77;;;;;;;;;;5095194;28;20701;-84
2022/10/27 05:31:27;;;;;;;1.80;1.70;;;;;;;;;;5094902;28;20676;-84
2022/10/27 05:33:55;;;;;;;2.38;1.80;;;;;;;;;;5095091;28;20307;-85
2022/10/27 05:36:22;;;;;;;1.40;1.30;;;;;;;;;;5095174;28;20625;-83
2022/10/27 05:38:50;;;;;;;2.03;1.92;;;;;;;;;;5094863;28;20690;-83
2022/10/27 05:41:18;;;;;;;3.05;2.80;;;;;;;;;;5094230;28;20196;-82
2022/10/27 05:43:47;;;;;;;2.38;2.20;;;;;;;;;;5094270;28;20224;-81
2022/10/27 05:46:14;;;;;;;2.20;2.10;;;;;;;;;;5093932;28;20295;-83
2022/10/27 05:48:42;;;;;;;1.80;1.70;;;;;;;;;;5094429;28;20296;-83
2022/10/27 05:51:09;;;;;;;1.60;1.50;;;;;;;;;;5094872;28;20298;-84
2022/10/27 05:53:37;;;;;;;1.98;1.85;;;;;;;;;;5094457;28;20221;-83
2022/10/27 05:56:05;;;;;;;2.03;1.92;;;;;;;;;;5095054;28;20196;-84
2022/10/27 05:58:32;;;;;;;2.70;2.50;;;;;;;;;;5095325;28;20287;-82
2022/10/27 06:01:01;;;;;;;2.50;2.30;;;;;;;;;;5094722;28;20642;-82
2022/10/27 06:03:29;;;;;;;3.08;2.88;;;;;;;;;;5095169;28;20311;-82
2022/10/27 06:05:57;;;;;;;2.85;2.65;;;;;;;;;;5093751;28;20221;-83
2022/10/27 06:08:24;;;;;;;2.58;2.38;;;;;;;;;;5093810;28;20202;-83
2022/10/27 06:10:52;;;;;;;2.25;2.05;;;;;;;;;;5093891;28;20208;-82
2022/10/27 06:13:19;;;;;;;1.52;1.42;;;;;;;;;;5094332;28;20311;-83
2022/10/27 06:15:46;;;;;;;2.10;2.00;;;;;;;;;;5094254;28;20224;-83
2022/10/27 06:18:15;;;;;;;1.80;1.70;;;;;;;;;;5094119;28;20239;-82
2022/10/27 06:20:44;;;;;;;1.70;1.60;;;;;;;;;;5094094;28;20239;-83
2022/10/27 06:23:11;;;;;;;1.75;1.65;;;;;;;;;;5093931;28;20227;-82
2022/10/27 06:25:39;;;;;;;1.55;1.45;;;;;;;;;;5093967;28;20288;-82
2022/10/27 06:28:06;;;;;;;1.50;1.40;;;;;;;;;;5094139;28;20869;-83
2022/10/27 06:30:34;;;;;;;2.58;1.50;;;;;;;;;;5094016;28;20219;-84
2022/10/27 06:33:01;;;;;;;2.10;1.98;;;;;;;;;;5093082;28;20596;-84
2022/10/27 06:35:30;;;;;;;1.77;1.67;;;;;;;;;;5093575;28;20624;-83
2022/10/27 06:37:57;;;;;;;1.70;1.60;;;;;;;;;;5093394;28;20203;-82
2022/10/27 06:40:25;;;;;;;1.65;1.55;;;;;;;;;;5093332;28;20287;-83
2022/10/27 06:42:52;;;;;;;1.48;1.38;;;;;;;;;;5093884;28;20680;-83
2022/10/27 06:45:20;;;;;;;1.55;1.45;;;;;;;;;;5093612;28;20311;-83
2022/10/27 06:47:57;;;;;;;2.22;2.08;;;;;;;;;;5093224;28;20234;-84
2022/10/27 06:50:25;;;;;;;1.73;1.63;;;;;;;;;;5093599;28;20204;-83
2022/10/27 06:52:53;;;;;;;1.60;1.50;;;;;;;;;;5093638;28;20767;-82
2022/10/27 06:55:21;;;;;;;2.88;2.58;;;;;;;;;;5093770;28;20490;-83
2022/10/27 06:57:49;;;;;;;3.00;2.80;;;;;;;;;;5094166;28;20295;-84
2022/10/27 07:00:17;;;;;;;2.85;2.65;;;;;;;;;;5093347;28;20630;-82
2022/10/27 07:02:44;;;;;;;3.50;3.20;;;;;;;;;;5093889;28;20216;-82
2022/10/27 07:05:12;;;;;;;3.17;2.78;;;;;;;;;;5093623;28;20710;-82
2022/10/27 07:07:40;;;;;;;2.58;2.38;;;;;;;;;;5093754;28;20200;-82
2022/10/27 07:10:09;;;;;;;2.15;2.05;;;;;;;;;;5093809;28;20295;-82
2022/10/27 07:12:37;;;;;;;2.55;2.38;;;;;;;;;;5094362;28;20288;-82
2022/10/27 07:15:05;;;;;;;2.17;2.08;;;;;;;;;;5094228;28;20671;-83
2022/10/27 07:17:33;;;;;;;2.30;2.00;;;;;;;;;;5094088;28;20207;-82
2022/10/27 07:20:00;;;;;;;2.30;2.10;;;;;;;;;;5093757;28;20228;-82
2022/10/27 07:22:28;;;;;;;1.98;1.80;;;;;;;;;;5093853;28;20196;-82
2022/10/27 07:24:55;;;;;;;2.28;1.90;;;;;;;;;;5093081;28;20255;-83
2022/10/27 07:27:24;;;;;;;1.50;1.40;;;;;;;;;;5094135;28;20248;-82
2022/10/27 07:29:51;;;;;;;1.75;1.65;;;;;;;;;;5093360;28;20239;-83
2022/10/27 07:32:19;;;;;;;1.63;1.52;;;;;;;;;;5093664;28;20288;-82
2022/10/27 07:34:46;;;;;;;2.35;2.15;;;;;;;;;;5093880;28;20227;-82
2022/10/27 07:37:14;;;;;;;2.25;2.05;;;;;;;;;;5095458;28;20295;-84
2022/10/27 07:39:41;;;;;;;1.75;1.65;;;;;;;;;;5096860;28;20232;-84
2022/10/27 07:42:09;;;;;;;1.60;1.50;;;;;;;;;;5096953;28;20243;-83
2022/10/27 07:44:38;;;;;;;1.88;1.77;;;;;;;;;;5097091;28;20284;-84
2022/10/27 07:47:05;;;;;;;1.33;1.33;;;;;;;;;;5096710;28;20236;-83
2022/10/27 07:49:33;;;;;;;1.70;1.60;;;;;;;;;;5097538;28;20239;-83
2022/10/27 07:52:00;;;;;;;1.73;1.50;;;;;;;;;;5097642;28;20679;-83
2022/10/27 07:54:28;;;;;;;1.42;1.33;;;;;;;;;;5097459;28;20255;-83
2022/10/27 07:56:56;;;;;;;1.55;1.45;;;;;;;;;;5098317;28;20669;-84
2022/10/27 07:59:23;;;;;;;1.40;1.30;;;;;;;;;;5097285;28;20206;-84
2022/10/27 08:01:52;;;;;;;1.98;1.88;;;;;;;;;;5097661;28;20660;-83
2022/10/27 08:04:20;;;;;;;1.75;1.65;;;;;;;;;;5097914;28;20231;-83
2022/10/27 08:06:47;;;;;;;2.50;2.40;;;;;;;;;;5096736;28;20315;-82
2022/10/27 08:09:15;;;;;;;2.35;2.15;;;;;;;;;;5097632;28;20232;-84
2022/10/27 08:11:42;;;;;;;2.20;2.00;;;;;;;;;;5098715;28;20280;-84
2022/10/27 08:14:12;;;;;;;2.00;1.90;;;;;;;;;;5099729;28;20783;-82
2022/10/27 08:16:39;;;;;;;1.60;1.50;;;;;;;;;;5100941;28;20196;-83
2022/10/27 08:19:08;;;;;;;1.75;1.65;;;;;;;;;;5100645;28;20235;-81
2022/10/27 08:21:35;;;;;;;1.88;1.77;;;;;;;;;;5102737;28;20269;-82
2022/10/27 08:24:03;;;;;;;1.85;1.75;;;;;;;;;;5101747;28;20315;-83
2022/10/27 08:26:32;;;;;;;1.73;1.63;;;;;;;;;;5100919;28;20319;-81
2022/10/27 08:28:59;;;;;;;1.60;1.50;;;;;;;;;;5100946;28;20246;-80
2022/10/27 08:31:27;;;;;;;1.98;1.88;;;;;;;;;;5099716;28;20224;-80
2022/10/27 08:33:54;;;;;;;1.77;1.67;;;;;;;;;;5099088;28;20266;-82
2022/10/27 08:36:23;;;;;;;2.15;2.05;;;;;;;;;;5099864;28;20287;-81
2022/10/27 08:38:50;;;;;;;2.65;2.45;;;;;;;;;;5099029;28;20268;-83
2022/10/27 08:41:23;;;;;;;2.45;2.25;;;;;;;;;;5099025;28;20230;-82
2022/10/27 08:44:04;;;;;;;2.70;2.47;;;;;;;;;;5098912;28;20212;-84
2022/10/27 08:46:40;;;;;;;3.05;2.35;;;;;;;;;;5098887;28;20623;-84
2022/10/27 08:49:19;;;;;;;2.58;2.38;;;;;;;;;;5097743;28;20596;-82
2022/10/27 08:51:49;;;;;;;2.58;2.38;;;;;;;;;;5099822;28;20275;-81
2022/10/27 08:54:17;;;;;;;4.07;2.47;;;;;;;;;;5099656;28;20311;-82
2022/10/27 08:56:45;;;;;;;5.95;3.17;;;;;;;;;;5096737;28;20716;-82
2022/10/27 08:59:18;;;;;;;4.47;4.07;;;;;;;;;;5096760;28;20605;-84
2022/10/27 09:01:52;;;;;;;3.40;3.10;;;;;;;;;;5095826;28;20180;-84
2022/10/27 09:04:55;;;;;;;3.03;2.83;;;;;;;;;;5095711;28;20218;-84
2022/10/27 09:07:31;;;;;;;2.58;2.38;;;;;;;;;;5096416;28;20287;-82
2022/10/27 09:10:01;;;;;;;3.58;3.28;;;;;;;;;;5096259;28;20272;-83
2022/10/27 09:13:03;;;;;;;4.45;3.95;;;;;;;;;;5095311;28;20196;-83
2022/10/27 09:15:42;;;;;;;3.60;3.30;;;;;;;;;;5072670;28;20207;-84
2022/10/27 09:18:16;;;;;;;3.50;3.20;;;;;;;;;;5096098;28;20189;-82
2022/10/27 09:20:46;;;;;;;3.65;2.80;;;;;;;;;;5096195;28;20187;-84
2022/10/27 09:23:18;;;;;;;2.42;2.22;;;;;;;;;;5096896;28;20585;-82
2022/10/27 09:25:50;;;;;;;2.72;2.53;;;;;;;;;;5095802;28;20188;-82
2022/10/27 09:28:22;;;;;;;2.55;2.33;;;;;;;;;;5095561;28;20188;-82
2022/10/27 09:30:51;;;;;;;1.73;1.63;;;;;;;;;;5095368;28;20184;-83
2022/10/27 09:33:23;;;;;;;2.50;2.17;;;;;;;;;;5095910;28;20288;-82
2022/10/27 09:35:51;;;;;;;2.35;2.15;;;;;;;;;;5095592;28;20204;-81
2022/10/27 09:38:24;;;;;;;2.78;2.58;;;;;;;;;;5095262;28;20196;-83
2022/10/27 09:40:52;;;;;;;2.88;2.67;;;;;;;;;;5094822;28;20552;-88
2022/10/27 09:43:21;;;;;;;3.92;3.63;;;;;;;;;;5094069;28;20255;-86
2022/10/27 09:45:54;;;;;;;4.40;4.00;;;;;;;;;;5094353;28;20200;-84
2022/10/27 09:48:25;;;;;;;3.45;2.90;;;;;;;;;;5099593;28;20191;-84
2022/10/27 09:50:56;;;;;;;3.78;3.47;;;;;;;;;;5098260;28;20177;-83
2022/10/27 09:53:46;;;;;;;3.65;3.35;;;;;;;;;;5097824;28;20307;-83
2022/10/27 09:56:18;;;;;;;3.78;3.10;;;;;;;;;;5097544;28;20185;-84
2022/10/27 09:58:56;;;;;;;2.72;2.53;;;;;;;;;;5098140;28;20280;-85
2022/10/27 10:01:25;;;;;;;3.72;2.83;;;;;;;;;;5099639;28;20272;-84
2022/10/27 10:03:55;;;;;;;2.88;2.67;;;;;;;;;;5099500;28;20220;-83
2022/10/27 10:06:29;;;;;;;2.47;2.33;;;;;;;;;;5102024;28;20291;-86
2022/10/27 10:09:18;;;;;;;3.28;2.85;;;;;;;;;;5100171;28;20279;-83
2022/10/27 10:11:45;;;;;;;3.65;2.92;;;;;;;;;;5100451;28;20191;-84
2022/10/27 10:14:22;;;;;;;3.90;3.33;;;;;;;;;;5099184;28;20315;-83
2022/10/27 10:16:51;;;;;;;3.45;3.17;;;;;;;;;;5098297;28;20188;-84
2022/10/27 10:19:21;;;;;;;3.95;3.47;;;;;;;;;;5095918;28;20234;-83
2022/10/27 10:21:52;;;;;;;3.42;3.22;;;;;;;;;;5096980;28;20204;-83
2022/10/27 10:24:23;;;;;;;2.85;2.65;;;;;;;;;;5097938;28;20208;-84
2022/10/27 10:26:54;;;;;;;3.88;3.53;;;;;;;;;;5095597;28;20267;-81
2022/10/27 10:29:29;;;;;;;4.45;3.67;;;;;;;;;;5095228;28;20248;-81
2022/10/27 10:32:10;;;;;;;3.60;3.30;;;;;;;;;;5095824;28;20313;-82
2022/10/27 10:34:38;;;;;;;3.10;2.90;;;;;;;;;;5096216;28;20306;-81
2022/10/27 10:37:31;;;;;;;4.93;3.40;;;;;;;;;;5095775;28;20203;-83
2022/10/27 10:40:29;;;;;;;3.20;2.85;;;;;;;;;;5095780;28;20678;-83
2022/10/27 10:43:09;;;;;;;3.03;2.63;;;;;;;;;;5095631;28;20312;-82
2022/10/27 10:45:36;;;;;;;2.97;2.40;;;;;;;;;;5094723;28;20208;-82
2022/10/27 10:48:16;;;;;;;1.40;1.30;;;;;;;;;;5094855;28;20273;-82
2022/10/27 10:50:47;;;;;;;1.75;1.65;;;;;;;;;;5095207;28;20271;-82
2022/10/27 10:53:28;;;;;;;1.58;1.48;;;;;;;;;;5094862;28;20307;-83
2022/10/27 10:56:00;;;;;;;1.52;1.42;;;;;;;;;;5095428;28;20189;-83
2022/10/27 10:58:29;;;;;;;3.83;1.67;;;;;;;;;;5095645;28;20684;-81
2022/10/27 11:00:59;;;;;;;2.90;1.65;;;;;;;;;;5095261;28;20210;-83
2022/10/27 11:03:30;;;;;;;1.70;1.55;;;;;;;;;;5094907;28;20307;-82
2022/10/27 11:06:00;;;;;;;1.65;1.50;;;;;;;;;;5095088;28;20696;-83
2022/10/27 11:08:36;;;;;;;1.85;1.52;;;;;;;;;;5095390;28;20275;-83
2022/10/27 11:11:09;;;;;;;1.88;1.58;;;;;;;;;;5095589;28;20267;-83
2022/10/27 11:13:43;;;;;;;2.13;1.55;;;;;;;;;;5098752;28;20711;-82
2022/10/27 11:16:11;;;;;;;2.90;1.55;;;;;;;;;;5099188;28;20227;-82
2022/10/27 11:18:51;;;;;;;2.28;2.03;;;;;;;;;;5099426;28;20243;-82
2022/10/27 11:21:28;;;;;;;2.85;2.03;;;;;;;;;;5099452;28;20267;-81
2022/10/27 11:23:59;;;;;;;2.67;2.22;;;;;;;;;;5098777;28;20224;-81
2022/10/27 11:26:33;;;;;;;1.67;1.52;;;;;;;;;;5099464;28;20298;-81
2022/10/27 11:29:11;;;;;;;1.92;1.33;;;;;;;;;;5098980;28;20200;-82
2022/10/27 11:31:44;;;;;;;1.50;1.40;;;;;;;;;;5099197;28;20191;-83
2022/10/27 11:34:22;;;;;;;2.05;1.85;;;;;;;;;;5099259;28;20258;-82
2022/10/27 11:36:53;;;;;;;2.25;1.95;;;;;;;;;;5098724;28;20277;-81
2022/10/27 11:39:23;;;;;;;2.92;1.52;;;;;;;;;;5098603;28;20443;-83
2022/10/27 11:41:58;;;;;;;1.67;1.33;;;;;;;;;;5099189;28;20563;-82
2022/10/27 11:44:32;;;;;;;2.20;1.85;;;;;;;;;;5098649;28;20310;-81
2022/10/27 11:47:04;;;;;;;1.30;1.20;;;;;;;;;;5097826;28;20274;-81
2022/10/27 11:49:39;;;;;;;1.75;1.33;;;;;;;;;;5097812;28;20283;-81
2022/10/27 11:52:13;;;;;;;2.72;1.55;;;;;;;;;;5098218;28;20274;-81
2022/10/27 11:54:41;;;;;;;3.13;1.98;;;;;;;;;;5098500;28;20302;-83
2022/10/27 11:57:24;;;;;;;1.58;1.48;;;;;;;;;;5098402;28;20232;-82
2022/10/27 12:00:07;;;;;;;2.58;1.40;;;;;;;;;;5098446;28;20614;-82
2022/10/27 12:03:12;;;;;;;2.63;1.95;;;;;;;;;;5098299;28;20259;-82
2022/10/27 12:05:47;;;;;;;2.70;1.25;;;;;;;;;;5098225;28;20275;-84
2022/10/27 12:08:25;;;;;;;1.52;1.42;;;;;;;;;;5098276;28;20620;-82
2022/10/27 12:11:02;;;;;;;2.22;1.70;;;;;;;;;;5097863;28;20223;-83
2022/10/27 12:13:38;;;;;;;1.52;1.42;;;;;;;;;;5097492;28;20311;-82
2022/10/27 12:16:11;;;;;;;2.13;1.92;;;;;;;;;;5097627;28;20203;-85
2022/10/27 12:18:42;;;;;;;1.92;1.58;;;;;;;;;;5097660;28;20180;-83
2022/10/27 12:21:17;;;;;;;1.67;1.58;;;;;;;;;;5096397;28;20560;-83
2022/10/27 12:23:50;;;;;;;1.55;1.45;;;;;;;;;;5095978;28;20314;-82
2022/10/27 12:26:21;;;;;;;1.45;1.40;;;;;;;;;;5097785;28;20272;-84
2022/10/27 12:28:51;;;;;;;3.30;1.42;;;;;;;;;;5097800;28;20730;-82
2022/10/27 12:31:23;;;;;;;2.15;1.85;;;;;;;;;;5097486;28;20638;-82
2022/10/27 12:33:55;;;;;;;1.30;1.20;;;;;;;;;;5097633;28;20306;-82
2022/10/27 12:36:28;;;;;;;1.77;1.67;;;;;;;;;;5097304;28;20197;-83
2022/10/27 12:39:05;;;;;;;3.50;1.80;;;;;;;;;;5097996;28;20208;-84
2022/10/27 12:41:38;;;;;;;1.75;1.65;;;;;;;;;;5097533;28;20184;-83
2022/10/27 12:44:19;;;;;;;2.20;1.90;;;;;;;;;;5097005;28;20660;-82
2022/10/27 12:47:06;;;;;;;1.67;1.58;;;;;;;;;;5097321;28;20279;-83
2022/10/27 12:49:39;;;;;;;1.30;1.20;;;;;;;;;;5096775;28;20223;-83
2022/10/27 12:52:13;;;;;;;1.50;1.40;;;;;;;;;;5096983;28;20246;-83
2022/10/27 12:55:23;;;;;;;1.80;1.35;;;;;;;;;;5096980;28;20310;-83
2022/10/27 12:57:54;;;;;;;1.17;1.15;;;;;;;;;;5072228;28;20204;-82
2022/10/27 13:00:24;;;;;;;1.20;1.10;;;;;;;;;;5097656;28;20263;-84
2022/10/27 13:03:19;;;;;;;1.73;1.63;;;;;;;;;;5096484;28;20302;-84
2022/10/27 13:06:14;;;;;;;2.03;1.52;;;;;;;;;;5096772;28;20268;-81
2022/10/27 13:09:45;;;;;;;3.03;1.67;;;;;;;;;;5097210;28;20224;-84
2022/10/27 13:12:51;;;;;;;2.85;1.48;;;;;;;;;;5057903;28;20237;-83
2022/10/27 13:15:58;;;;;;;1.58;1.48;;;;;;;;;;5090154;28;20642;-83
2022/10/27 13:19:00;;;;;;;2.70;1.45;;;;;;;;;;5093861;28;20196;-82
2022/10/27 13:21:34;;;;;;;2.35;1.48;;;;;;;;;;5097575;28;20593;-82
2022/10/27 13:24:15;;;;;;;7.32;1.80;;;;;;;;;;5097036;28;20307;-82
2022/10/27 13:26:50;;;;;;;1.45;1.35;;;;;;;;;;5097995;28;20614;-83
2022/10/27 13:29:29;;;;;;;1.67;1.58;;;;;;;;;;5096587;28;20260;-81
2022/10/27 13:32:50;;;;;;;2.35;1.70;;;;;;;;;;5096332;28;20187;-83
2022/10/27 13:35:39;;;;;;;2.75;1.75;;;;;;;;;;5096183;28;20619;-81
2022/10/27 13:38:25;;;;;;;1.88;1.30;;;;;;;;;;5096423;28;20534;-83
2022/10/27 13:40:54;;;;;;;2.20;1.40;;;;;;;;;;5095891;28;20704;-83
2022/10/27 13:43:57;;;;;;;1.60;1.50;;;;;;;;;;5096983;28;20306;-82
2022/10/27 13:47:10;;;;;;;2.17;1.38;;;;;;;;;;5096198;28;20196;-84
2022/10/27 13:50:00;;;;;;;3.25;1.60;;;;;;;;;;5049051;28;20234;-82
2022/10/27 13:52:32;;;;;;;1.30;1.20;;;;;;;;;;5089886;28;20203;-82
2022/10/27 13:55:34;;;;;;;1.40;1.30;;;;;;;;;;5097051;28;20295;-83
2022/10/27 13:58:36;;;;;;;1.40;1.30;;;;;;;;;;5096307;28;20196;-82
2022/10/27 14:01:31;;;;;;;1.55;1.40;;;;;;;;;;5096780;28;20261;-82
2022/10/27 14:04:39;;;;;;;1.20;1.10;;;;;;;;;;5095994;28;20287;-83
2022/10/27 14:07:12;;;;;;;1.25;1.15;;;;;;;;;;5095352;28;20625;-81
2022/10/27 14:09:44;;;;;;;2.40;1.40;;;;;;;;;;5096103;28;20268;-81
2022/10/27 14:12:21;;;;;;;1.38;1.30;;;;;;;;;;5095956;28;20237;-82
2022/10/27 14:14:51;;;;;;;1.35;1.20;;;;;;;;;;5096730;28;20275;-83
2022/10/27 14:17:22;;;;;;;1.73;1.40;;;;;;;;;;5097353;28;20199;-82
2022/10/27 14:19:58;;;;;;;1.50;1.40;;;;;;;;;;5097089;28;20634;-83
2022/10/27 14:22:35;;;;;;;1.63;1.40;;;;;;;;;;5096206;28;20244;-82
2022/10/27 14:25:18;;;;;;;2.13;1.95;;;;;;;;;;5096129;28;20625;-82
2022/10/27 14:27:46;;;;;;;0.77;0.77;;;;;;;;;;5096337;28;20252;-82
2022/10/27 14:30:19;;;;;;;1.10;1.00;;;;;;;;;;5096804;28;20250;-81
2022/10/27 14:32:46;;;;;;;1.67;1.50;;;;;;;;;;5095448;28;20647;-81
2022/10/27 14:35:22;;;;;;;1.63;1.15;;;;;;;;;;5096036;28;20629;-82
2022/10/27 14:37:56;;;;;;;1.20;1.10;;;;;;;;;;5095895;28;20275;-81
2022/10/27 14:40:30;;;;;;;1.60;1.23;;;;;;;;;;5095866;28;20185;-81
2022/10/27 14:42:58;;;;;;;1.58;1.48;;;;;;;;;;5095792;28;20227;-82
2022/10/27 14:45:26;;;;;;;1.48;1.00;;;;;;;;;;5095290;28;20232;-83
2022/10/27 14:48:00;;;;;;;2.60;1.40;;;;;;;;;;5095284;28;20637;-83
2022/10/27 14:50:32;;;;;;;2.65;1.55;;;;;;;;;;5096109;28;20291;-83
2022/10/27 14:53:02;;;;;;;1.52;1.23;;;;;;;;;;5095716;28;20311;-83
2022/10/27 14:55:32;;;;;;;1.05;0.95;;;;;;;;;;5096416;28;20279;-82
2022/10/27 14:58:00;;;;;;;0.90;0.90;;;;;;;;;;5096043;28;20720;-83
2022/10/27 15:00:30;;;;;;;2.85;1.40;;;;;;;;;;5095541;28;20667;-82
2022/10/27 15:03:00;;;;;;;1.40;1.30;;;;;;;;;;5094751;28;20226;-83
2022/10/27 15:05:30;;;;;;;1.27;1.27;;;;;;;;;;5095521;28;20196;-82
2022/10/27 15:08:00;;;;;;;0.93;0.93;;;;;;;;;;5095388;28;20210;-82
2022/10/27 15:10:35;;;;;;;1.30;1.20;;;;;;;;;;5096107;28;20295;-83
2022/10/27 15:13:03;;;;;;;0.90;0.90;;;;;;;;;;5095868;28;20322;-83
2022/10/27 15:15:35;;;;;;;1.13;1.13;;;;;;;;;;5096065;28;20287;-82